Time;durP1;ratioP1;P1;durP2;ratioP2;P2;SDS_P1;SDS_P2;PMS_P1;PMS_P2;Temp;Humidity;BMP_temperature;BMP_pressure;BME280_temperature;BME280_humidity;BME280_pressure;Samples;Min_cycle;Max_cycle;Signal;HPM_P1;HPM_P2
2022/03/05 00:00:58;;;;;;;19.93;14.80;;;5.40;58.90;;;;;;5050063;28;20516;-73
2022/03/05 00:03:26;;;;;;;27.00;16.33;;;5.30;58.80;;;;;;5049795;28;20458;-73
2022/03/05 00:05:53;;;;;;;23.37;14.83;;;5.20;58.90;;;;;;5049793;28;20836;-72
2022/03/05 00:08:20;;;;;;;22.37;15.27;;;5.20;59.10;;;;;;5049974;28;20450;-73
2022/03/05 00:10:48;;;;;;;20.20;14.80;;;5.10;60.10;;;;;;5050045;28;20454;-72
2022/03/05 00:13:16;;;;;;;24.00;15.03;;;5.10;60.00;;;;;;5049927;28;20450;-73
2022/03/05 00:15:43;;;;;;;23.37;15.67;;;5.00;60.40;;;;;;5049381;28;20485;-72
2022/03/05 00:18:10;;;;;;;22.90;15.57;;;4.90;61.30;;;;;;5049535;28;20571;-71
2022/03/05 00:20:38;;;;;;;24.60;14.60;;;5.10;61.90;;;;;;5049606;28;20452;-72
2022/03/05 00:23:05;;;;;;;24.63;15.13;;;5.20;62.90;;;;;;5049795;28;20450;-72
2022/03/05 00:25:32;;;;;;;27.10;16.60;;;5.20;62.90;;;;;;5049692;28;20457;-72
2022/03/05 00:27:59;;;;;;;24.20;14.93;;;5.20;63.10;;;;;;5049822;28;20457;-71
2022/03/05 00:30:28;;;;;;;27.97;16.03;;;5.20;63.30;;;;;;5049499;28;20454;-72
2022/03/05 00:32:55;;;;;;;23.20;15.10;;;5.20;63.90;;;;;;5049385;28;20481;-72
2022/03/05 00:35:22;;;;;;;22.90;15.70;;;5.30;63.80;;;;;;5049573;28;20848;-72
2022/03/05 00:37:49;;;;;;;23.97;16.33;;;5.30;63.90;;;;;;5049494;28;20454;-72
2022/03/05 00:40:17;;;;;;;32.57;17.50;;;5.20;63.80;;;;;;5049709;28;20515;-72
2022/03/05 00:42:44;;;;;;;29.63;16.83;;;5.20;64.40;;;;;;5049214;28;20450;-73
2022/03/05 00:45:11;;;;;;;26.33;17.33;;;5.30;64.80;;;;;;5049348;28;20448;-73
2022/03/05 00:47:40;;;;;;;22.97;15.77;;;5.40;64.30;;;;;;5049285;28;20466;-71
2022/03/05 00:50:08;;;;;;;22.50;15.57;;;5.40;64.80;;;;;;5051956;28;20533;-72
2022/03/05 00:52:36;;;;;;;24.63;16.80;;;5.30;64.90;;;;;;5053433;28;20796;-71
2022/03/05 00:55:04;;;;;;;25.80;16.90;;;5.40;64.10;;;;;;5053249;28;20453;-72
2022/03/05 00:57:31;;;;;;;21.67;15.47;;;5.50;64.30;;;;;;5053502;28;20465;-72
2022/03/05 00:59:58;;;;;;;23.10;15.60;;;5.70;63.90;;;;;;5053355;28;20485;-72
2022/03/05 01:02:26;;;;;;;23.17;16.93;;;5.70;63.90;;;;;;5053368;28;20466;-72
2022/03/05 01:04:54;;;;;;;26.40;17.70;;;5.80;63.60;;;;;;5053561;28;20462;-72
2022/03/05 01:07:21;;;;;;;23.43;14.60;;;5.80;63.70;;;;;;5053484;28;20977;-72
2022/03/05 01:09:48;;;;;;;24.10;15.07;;;5.80;64.40;;;;;;5053024;28;20503;-73
2022/03/05 01:12:16;;;;;;;25.03;16.30;;;5.90;64.10;;;;;;5053063;28;20450;-73
2022/03/05 01:14:43;;;;;;;25.73;16.80;;;5.90;63.90;;;;;;5053207;28;20977;-72
2022/03/05 01:17:10;;;;;;;24.37;16.67;;;5.90;63.50;;;;;;5053235;28;20476;-72
2022/03/05 01:19:37;;;;;;;19.70;14.67;;;5.80;63.70;;;;;;5053370;28;20492;-73
2022/03/05 01:22:06;;;;;;;28.13;16.67;;;5.90;63.80;;;;;;5053227;28;20507;-73
2022/03/05 01:24:33;;;;;;;20.60;16.00;;;5.80;65.00;;;;;;5052880;28;20968;-72
2022/03/05 01:27:00;;;;;;;20.50;16.40;;;5.60;66.00;;;;;;5052759;28;20501;-72
2022/03/05 01:29:27;;;;;;;23.33;16.40;;;5.60;66.70;;;;;;5052910;28;20453;-71
2022/03/05 01:31:54;;;;;;;37.03;19.00;;;5.50;67.20;;;;;;5052709;28;20565;-72
2022/03/05 01:34:21;;;;;;;25.97;17.80;;;5.60;67.00;;;;;;5052929;28;20458;-72
2022/03/05 01:36:48;;;;;;;32.23;19.23;;;5.50;67.40;;;;;;5052904;28;20485;-71
2022/03/05 01:39:17;;;;;;;27.67;18.37;;;5.70;67.50;;;;;;5052625;28;20497;-71
2022/03/05 01:41:48;;;;;;;27.90;19.07;;;5.60;67.50;;;;;;5052524;28;20454;-72
2022/03/05 01:44:15;;;;;;;31.63;21.47;;;5.70;67.70;;;;;;5052525;28;20563;-71
2022/03/05 01:46:42;;;;;;;37.60;23.63;;;5.50;68.60;;;;;;5052658;28;20469;-72
2022/03/05 01:49:11;;;;;;;38.33;25.10;;;5.50;68.90;;;;;;5052592;28;20934;-73
2022/03/05 01:51:39;;;;;;;40.13;24.87;;;5.60;68.80;;;;;;5052440;28;20457;-72
2022/03/05 01:54:07;;;;;;;43.43;27.50;;;5.60;68.50;;;;;;5052433;28;20446;-72
2022/03/05 01:56:37;;;;;;;40.87;27.97;;;5.70;68.50;;;;;;5052083;28;21052;-72
2022/03/05 01:59:05;;;;;;;36.60;26.10;;;5.60;68.50;;;;;;5052134;28;20512;-72
2022/03/05 02:01:32;;;;;;;49.60;28.10;;;5.70;68.80;;;;;;5051749;28;20458;-71
2022/03/05 02:03:59;;;;;;;46.83;28.47;;;5.70;68.90;;;;;;5052430;28;20454;-72
2022/03/05 02:06:27;;;;;;;38.60;27.00;;;5.60;68.90;;;;;;5051943;28;20887;-72
2022/03/05 02:08:57;;;;;;;42.43;29.03;;;5.40;70.10;;;;;;5052236;28;20783;-72
2022/03/05 02:11:24;;;;;;;39.80;26.80;;;5.30;70.60;;;;;;5052043;28;20934;-73
2022/03/05 02:13:53;;;;;;;40.43;28.20;;;5.30;70.60;;;;;;5052020;28;20461;-71
2022/03/05 02:16:21;;;;;;;45.00;27.63;;;5.30;70.60;;;;;;5052088;28;20481;-72
2022/03/05 02:18:49;;;;;;;36.50;26.13;;;5.50;70.00;;;;;;5051681;28;20477;-72
2022/03/05 02:21:18;;;;;;;47.97;28.10;;;5.50;69.80;;;;;;5051845;28;20490;-73
2022/03/05 02:23:45;;;;;;;44.50;26.90;;;5.50;69.10;;;;;;5051627;28;20481;-72
2022/03/05 02:26:12;;;;;;;37.90;26.10;;;5.50;68.70;;;;;;5051866;28;20882;-71
2022/03/05 02:28:39;;;;;;;42.43;27.13;;;5.60;68.50;;;;;;5051706;28;20454;-70
2022/03/05 02:31:07;;;;;;;39.80;26.53;;;5.60;68.30;;;;;;5051675;28;20453;-72
2022/03/05 02:33:35;;;;;;;42.77;26.30;;;5.70;68.50;;;;;;5051348;28;20833;-72
2022/03/05 02:36:02;;;;;;;50.43;29.47;;;5.60;69.20;;;;;;5051701;28;20473;-72
2022/03/05 02:38:31;;;;;;;43.57;30.20;;;5.50;70.20;;;;;;5051663;28;20461;-73
2022/03/05 02:40:58;;;;;;;47.00;28.60;;;5.30;71.60;;;;;;5051660;28;20446;-73
2022/03/05 02:43:26;;;;;;;43.43;28.67;;;5.20;73.00;;;;;;5051734;28;20450;-74
2022/03/05 02:45:54;;;;;;;47.30;28.60;;;5.10;74.30;;;;;;5051205;28;20477;-73
2022/03/05 02:48:21;;;;;;;41.97;26.67;;;4.90;75.10;;;;;;5051503;28;20939;-74
2022/03/05 02:50:50;;;;;;;44.50;28.53;;;4.70;76.20;;;;;;5051547;28;20453;-74
2022/03/05 02:53:17;;;;;;;38.47;26.67;;;4.50;77.30;;;;;;5051504;28;20522;-73
2022/03/05 02:55:47;;;;;;;33.50;23.70;;;4.50;77.50;;;;;;5051409;28;20540;-74
2022/03/05 02:58:14;;;;;;;40.00;25.67;;;4.60;77.60;;;;;;5051323;28;20771;-74
2022/03/05 03:00:41;;;;;;;32.50;23.47;;;4.60;77.10;;;;;;5050805;28;20568;-73
2022/03/05 03:03:09;;;;;;;35.83;22.97;;;4.30;77.20;;;;;;5051227;28;20818;-74
2022/03/05 03:05:36;;;;;;;41.23;25.40;;;4.20;77.90;;;;;;5051141;28;20855;-73
2022/03/05 03:08:03;;;;;;;35.40;23.27;;;4.10;78.70;;;;;;5051306;28;20457;-73
2022/03/05 03:10:30;;;;;;;36.43;23.17;;;4.30;78.50;;;;;;5051100;28;20457;-74
2022/03/05 03:12:59;;;;;;;33.07;24.07;;;4.40;78.40;;;;;;5049531;28;20457;-74
2022/03/05 03:15:26;;;;;;;34.23;22.07;;;4.50;78.80;;;;;;5050948;28;20465;-73
2022/03/05 03:17:54;;;;;;;33.00;21.97;;;4.30;79.60;;;;;;5051114;28;20454;-74
2022/03/05 03:20:24;;;;;;;35.90;23.90;;;4.30;79.80;;;;;;5050877;28;20493;-73
2022/03/05 03:22:51;;;;;;;35.47;22.13;;;4.60;78.00;;;;;;5050890;28;20468;-73
2022/03/05 03:25:18;;;;;;;36.73;24.57;;;4.70;77.40;;;;;;5050768;28;20833;-73
2022/03/05 03:27:45;;;;;;;38.10;24.67;;;4.90;76.60;;;;;;5050492;28;21005;-74
2022/03/05 03:30:15;;;;;;;33.23;23.40;;;5.00;76.70;;;;;;5050781;28;20462;-74
2022/03/05 03:32:43;;;;;;;42.93;25.50;;;5.20;76.20;;;;;;5050232;28;20497;-74
2022/03/05 03:35:12;;;;;;;41.57;25.23;;;5.40;75.70;;;;;;5050842;28;20450;-74
2022/03/05 03:37:39;;;;;;;36.13;25.20;;;5.50;75.60;;;;;;5050929;28;20478;-74
2022/03/05 03:40:10;;;;;;;29.13;21.77;;;5.50;75.10;;;;;;5051245;28;20485;-73
2022/03/05 03:42:38;;;;;;;41.10;22.77;;;5.60;75.20;;;;;;5051006;28;20473;-74
2022/03/05 03:45:07;;;;;;;31.53;23.43;;;5.60;75.00;;;;;;5050462;28;20462;-74
2022/03/05 03:47:36;;;;;;;39.27;24.87;;;5.60;75.20;;;;;;5050532;28;20473;-74
2022/03/05 03:50:05;;;;;;;41.40;25.33;;;5.60;75.10;;;;;;5050508;28;20469;-75
2022/03/05 03:52:32;;;;;;;36.73;25.13;;;5.60;74.80;;;;;;5049936;28;20462;-74
2022/03/05 03:55:00;;;;;;;39.90;25.10;;;5.50;74.90;;;;;;5050154;28;20476;-74
2022/03/05 03:57:27;;;;;;;40.43;25.77;;;5.50;75.40;;;;;;5050071;28;20474;-74
2022/03/05 03:59:54;;;;;;;36.47;24.50;;;5.60;75.30;;;;;;5050222;28;20868;-73
2022/03/05 04:02:21;;;;;;;41.77;25.07;;;5.50;75.80;;;;;;5049541;28;20461;-74
2022/03/05 04:04:50;;;;;;;41.53;26.73;;;5.50;76.10;;;;;;5050141;28;20457;-74
2022/03/05 04:10:03;;;;;;;39.00;26.83;;;5.10;78.30;;;;;;5049945;28;20453;-74
2022/03/05 04:12:30;;;;;;;38.27;27.60;;;5.20;77.70;;;;;;5049900;28;20461;-74
2022/03/05 04:14:58;;;;;;;36.90;27.27;;;5.20;78.00;;;;;;5049864;28;20465;-74
2022/03/05 04:17:25;;;;;;;39.63;25.53;;;5.00;79.20;;;;;;5050146;28;20488;-74
2022/03/05 04:19:53;;;;;;;36.90;24.97;;;4.90;80.40;;;;;;5049931;28;20493;-75
2022/03/05 04:22:20;;;;;;;40.93;26.67;;;5.00;79.50;;;;;;5049927;28;20808;-74
2022/03/05 04:24:48;;;;;;;36.30;25.53;;;4.70;80.90;;;;;;5049049;28;20969;-74
2022/03/05 04:27:15;;;;;;;34.90;23.27;;;4.60;82.20;;;;;;5049616;28;20993;-73
2022/03/05 04:29:42;;;;;;;30.63;22.63;;;4.60;81.60;;;;;;5049308;28;20465;-75
2022/03/05 04:32:09;;;;;;;33.07;21.70;;;4.60;81.10;;;;;;5049152;28;20485;-74
2022/03/05 04:34:37;;;;;;;32.90;21.60;;;4.60;80.80;;;;;;5049380;28;20927;-74
2022/03/05 04:37:06;;;;;;;30.03;20.00;;;4.60;80.60;;;;;;5049580;28;20523;-73
2022/03/05 04:39:33;;;;;;;30.20;20.73;;;4.70;80.30;;;;;;5049386;28;20993;-74
2022/03/05 04:42:00;;;;;;;30.00;19.90;;;4.90;78.10;;;;;;5049285;28;20853;-74
2022/03/05 04:44:28;;;;;;;23.33;17.10;;;5.00;77.20;;;;;;5048972;28;20946;-74
2022/03/05 04:46:55;;;;;;;27.83;18.30;;;4.90;77.70;;;;;;5049460;28;20470;-74
2022/03/05 04:49:22;;;;;;;27.23;18.33;;;4.80;77.20;;;;;;5049706;28;20461;-74
2022/03/05 04:51:49;;;;;;;27.00;18.40;;;4.90;76.90;;;;;;5049608;28;20538;-74
2022/03/05 04:54:17;;;;;;;27.80;18.20;;;4.90;77.10;;;;;;5049463;28;20946;-73
2022/03/05 04:56:45;;;;;;;33.50;19.00;;;4.60;78.70;;;;;;5049445;28;20477;-72
2022/03/05 04:59:12;;;;;;;24.90;17.07;;;4.70;78.90;;;;;;5049069;28;20457;-72
2022/03/05 05:01:40;;;;;;;27.90;19.03;;;4.80;78.60;;;;;;5048038;28;20490;-73
2022/03/05 05:04:07;;;;;;;27.40;17.50;;;4.90;77.90;;;;;;5049545;28;20612;-73
2022/03/05 05:06:34;;;;;;;25.90;18.20;;;4.90;78.10;;;;;;5049344;28;20484;-71
2022/03/05 05:09:01;;;;;;;28.90;19.10;;;4.80;79.60;;;;;;5049343;28;20461;-73
2022/03/05 05:11:30;;;;;;;28.87;17.20;;;4.70;80.00;;;;;;5049336;28;20486;-71
2022/03/05 05:13:57;;;;;;;25.10;19.07;;;4.40;81.20;;;;;;5048925;28;20459;-70
2022/03/05 05:16:24;;;;;;;26.47;19.40;;;4.10;82.30;;;;;;5049117;28;20521;-74
2022/03/05 05:21:32;;;;;;;24.30;18.83;;;4.40;82.60;;;;;;5040029;28;20950;-72
2022/03/05 05:24:00;;;;;;;30.27;17.33;;;4.70;81.40;;;;;;5049024;28;20453;-71
2022/03/05 05:26:27;;;;;;;27.23;19.27;;;4.90;80.60;;;;;;5049217;28;20473;-72
2022/03/05 05:28:55;;;;;;;29.10;20.23;;;5.00;80.60;;;;;;5049075;28;20799;-72
2022/03/05 05:31:22;;;;;;;29.40;20.20;;;5.00;80.40;;;;;;5049219;28;20472;-72
2022/03/05 05:33:51;;;;;;;28.23;18.70;;;5.00;81.00;;;;;;5048953;28;20973;-72
2022/03/05 05:36:18;;;;;;;27.50;19.10;;;4.60;81.90;;;;;;5050545;28;21057;-71
2022/03/05 05:38:45;;;;;;;23.93;18.93;;;4.70;82.70;;;;;;5052604;28;20512;-71
2022/03/05 05:41:16;;;;;;;31.30;18.30;;;4.90;82.80;;;;;;5052432;28;20494;-71
2022/03/05 05:43:43;;;;;;;26.13;20.10;;;5.00;82.20;;;;;;5052652;28;20461;-72
2022/03/05 05:46:12;;;;;;;27.07;19.50;;;4.90;82.60;;;;;;5052708;28;20474;-73
2022/03/05 05:48:39;;;;;;;55.60;49.60;;;4.70;83.80;;;;;;5052749;28;20540;-71
2022/03/05 05:51:07;;;;;;;48.10;43.03;;;4.90;84.30;;;;;;5051127;28;20535;-72
2022/03/05 05:53:34;;;;;;;72.77;66.37;;;5.00;84.10;;;;;;5052609;28;20961;-72
2022/03/05 05:56:01;;;;;;;28.97;21.97;;;5.10;83.20;;;;;;5052351;28;20470;-74
2022/03/05 05:58:28;;;;;;;28.60;20.40;;;5.10;83.50;;;;;;5052490;28;20460;-75
2022/03/05 06:00:55;;;;;;;28.73;19.30;;;4.80;84.70;;;;;;5052345;28;20493;-73
2022/03/05 06:03:24;;;;;;;30.73;21.10;;;5.00;83.30;;;;;;5052398;28;20446;-73
2022/03/05 06:05:51;;;;;;;28.60;19.53;;;5.10;83.80;;;;;;5051849;28;20461;-74
2022/03/05 06:08:18;;;;;;;28.90;19.30;;;5.20;83.20;;;;;;5051901;28;20473;-73
2022/03/05 06:10:46;;;;;;;26.37;20.40;;;4.60;84.20;;;;;;5052093;28;20477;-72
2022/03/05 06:13:13;;;;;;;27.17;20.77;;;4.60;85.50;;;;;;5052324;28;20966;-75
2022/03/05 06:15:41;;;;;;;33.20;20.50;;;4.70;86.20;;;;;;5052174;28;20984;-69
2022/03/05 06:18:08;;;;;;;32.87;20.13;;;4.50;86.20;;;;;;5052283;28;20499;-71
2022/03/05 06:20:36;;;;;;;32.80;21.00;;;4.60;87.10;;;;;;5051535;28;20489;-75
2022/03/05 06:23:04;;;;;;;35.07;23.50;;;4.70;87.50;;;;;;5051706;28;20957;-71
2022/03/05 06:25:31;;;;;;;32.57;23.50;;;4.70;88.10;;;;;;5051950;28;20502;-73
2022/03/05 06:27:58;;;;;;;33.27;23.07;;;5.00;88.60;;;;;;5052116;28;20453;-73
2022/03/05 06:30:25;;;;;;;32.17;24.67;;;5.20;86.80;;;;;;5051974;28;20786;-74
2022/03/05 06:32:53;;;;;;;35.63;24.83;;;5.30;86.00;;;;;;5051329;28;20482;-73
2022/03/05 06:35:20;;;;;;;36.90;24.03;;;5.30;86.90;;;;;;5051501;28;20791;-76
2022/03/05 06:37:48;;;;;;;32.23;24.23;;;5.00;86.90;;;;;;5051720;28;20512;-75
2022/03/05 06:40:15;;;;;;;30.50;23.40;;;4.60;88.30;;;;;;5051617;28;20493;-72
2022/03/05 06:42:44;;;;;;;34.33;24.50;;;4.90;88.70;;;;;;5051699;28;20945;-69
2022/03/05 06:45:12;;;;;;;52.30;26.63;;;5.20;87.70;;;;;;5051570;28;20536;-70
2022/03/05 06:47:39;;;;;;;36.67;24.30;;;5.50;86.60;;;;;;5051367;28;20951;-70
2022/03/05 06:50:07;;;;;;;39.73;27.33;;;5.70;85.70;;;;;;5051322;28;20430;-71
2022/03/05 06:52:34;;;;;;;37.67;25.23;;;5.80;85.60;;;;;;5051430;28;20454;-70
2022/03/05 06:55:04;;;;;;;32.80;24.70;;;5.90;84.50;;;;;;5051140;28;20480;-71
2022/03/05 06:57:31;;;;;;;33.77;24.83;;;5.80;83.50;;;;;;5051463;28;20831;-71
2022/03/05 06:59:58;;;;;;;37.83;22.63;;;5.80;82.70;;;;;;5050704;28;20949;-73
2022/03/05 07:02:25;;;;;;;36.20;23.60;;;5.70;84.10;;;;;;5051127;28;20554;-72
2022/03/05 07:04:53;;;;;;;37.57;25.53;;;5.70;84.10;;;;;;5051106;28;20821;-72
2022/03/05 07:07:20;;;;;;;37.23;24.23;;;5.50;85.70;;;;;;5050890;28;20484;-70
2022/03/05 07:09:47;;;;;;;31.93;23.77;;;5.50;85.70;;;;;;5050885;28;20450;-71
2022/03/05 07:12:15;;;;;;;31.30;24.40;;;5.60;85.50;;;;;;5051126;28;20455;-72
2022/03/05 07:14:44;;;;;;;35.77;24.07;;;5.90;84.20;;;;;;5050949;28;20519;-73
2022/03/05 07:17:11;;;;;;;34.53;24.87;;;6.00;83.70;;;;;;5050594;28;20482;-73
2022/03/05 07:19:39;;;;;;;30.53;23.50;;;6.00;82.70;;;;;;5050626;28;20971;-72
2022/03/05 07:22:07;;;;;;;33.40;24.30;;;6.30;80.40;;;;;;5050564;28;20550;-73
2022/03/05 07:24:35;;;;;;;30.03;22.63;;;6.30;81.00;;;;;;5050914;28;20460;-72
2022/03/05 07:27:02;;;;;;;34.03;24.37;;;6.40;80.30;;;;;;5050812;28;20476;-74
2022/03/05 07:29:30;;;;;;;35.50;24.93;;;6.50;79.80;;;;;;5050660;28;20449;-73
2022/03/05 07:31:57;;;;;;;35.60;25.00;;;6.60;79.20;;;;;;5049939;28;20474;-73
2022/03/05 07:34:26;;;;;;;34.90;24.10;;;6.90;77.20;;;;;;5050564;28;20879;-71
2022/03/05 07:36:53;;;;;;;37.37;27.17;;;7.00;75.60;;;;;;5050392;28;20565;-72
2022/03/05 07:39:20;;;;;;;36.27;23.27;;;6.80;76.20;;;;;;5050673;28;20458;-71
2022/03/05 07:41:48;;;;;;;32.37;24.00;;;6.90;76.40;;;;;;5050018;28;20489;-70
2022/03/05 07:44:15;;;;;;;36.60;26.13;;;7.00;77.40;;;;;;5050082;28;20461;-72
2022/03/05 07:46:44;;;;;;;30.63;23.60;;;7.10;77.50;;;;;;5050332;28;20493;-73
2022/03/05 07:49:11;;;;;;;41.70;25.93;;;7.40;76.80;;;;;;5050387;28;20453;-66
2022/03/05 07:51:39;;;;;;;48.87;35.23;;;7.50;76.90;;;;;;5050328;28;20801;-73
2022/03/05 07:54:06;;;;;;;57.93;36.77;;;7.60;78.60;;;;;;5050257;28;20938;-70
2022/03/05 07:56:33;;;;;;;50.43;37.53;;;7.70;77.90;;;;;;5049680;28;20470;-71
2022/03/05 07:59:01;;;;;;;45.70;35.33;;;7.80;77.60;;;;;;5049569;28;21237;-72
2022/03/05 08:01:28;;;;;;;51.53;36.80;;;7.80;77.30;;;;;;5050164;28;20977;-71
2022/03/05 08:03:56;;;;;;;48.07;34.53;;;7.70;77.20;;;;;;5050148;28;20450;-69
2022/03/05 08:06:23;;;;;;;52.47;33.53;;;7.80;76.80;;;;;;5049981;28;20493;-70
2022/03/05 08:08:52;;;;;;;50.63;32.40;;;7.70;78.00;;;;;;5050034;28;20450;-66
2022/03/05 08:11:19;;;;;;;44.47;32.47;;;7.60;77.40;;;;;;5049621;28;20923;-70
2022/03/05 08:13:46;;;;;;;43.00;31.00;;;7.70;75.70;;;;;;5049976;28;20508;-73
2022/03/05 08:16:13;;;;;;;38.10;29.40;;;7.50;76.30;;;;;;5049799;28;20510;-75
2022/03/05 08:18:40;;;;;;;44.30;29.53;;;7.70;75.00;;;;;;5048266;28;20457;-68
2022/03/05 08:21:09;;;;;;;36.53;29.07;;;7.60;75.00;;;;;;5049639;28;20488;-69
2022/03/05 08:23:36;;;;;;;54.27;31.77;;;7.80;75.10;;;;;;5049633;28;20458;-75
2022/03/05 08:26:05;;;;;;;40.83;31.13;;;8.00;75.40;;;;;;5049716;28;20485;-74
2022/03/05 08:28:32;;;;;;;46.13;31.67;;;7.90;75.20;;;;;;5049471;28;20946;-76
2022/03/05 08:30:59;;;;;;;39.73;28.50;;;7.90;75.00;;;;;;5049625;28;20453;-72
2022/03/05 08:33:26;;;;;;;38.57;29.73;;;8.20;74.60;;;;;;5048860;28;20516;-73
2022/03/05 08:35:53;;;;;;;49.17;30.63;;;8.20;74.10;;;;;;5049564;28;20981;-74
2022/03/05 08:38:22;;;;;;;47.17;29.13;;;8.30;75.00;;;;;;5050271;28;20442;-74
2022/03/05 08:40:49;;;;;;;43.73;30.70;;;8.40;76.20;;;;;;5049065;28;20547;-76
2022/03/05 08:43:16;;;;;;;42.90;30.87;;;8.60;75.50;;;;;;5049082;28;20962;-74
2022/03/05 08:45:43;;;;;;;39.70;31.17;;;8.60;75.30;;;;;;5049457;28;20477;-69
2022/03/05 08:48:10;;;;;;;43.43;30.07;;;8.70;74.50;;;;;;5049113;28;20537;-69
2022/03/05 08:50:37;;;;;;;47.33;31.40;;;8.80;73.60;;;;;;5049212;28;20450;-71
2022/03/05 08:53:04;;;;;;;43.43;29.10;;;8.60;74.10;;;;;;5049048;28;20507;-74
2022/03/05 08:55:33;;;;;;;38.77;29.47;;;8.60;75.10;;;;;;5050120;28;20457;-74
2022/03/05 08:58:00;;;;;;;37.13;29.13;;;8.50;75.40;;;;;;5049716;28;20454;-75
2022/03/05 09:00:27;;;;;;;38.33;29.33;;;8.60;75.50;;;;;;5048820;28;20490;-73
2022/03/05 09:02:55;;;;;;;42.57;29.10;;;8.60;76.40;;;;;;5049099;28;21012;-71
2022/03/05 09:05:22;;;;;;;36.47;28.23;;;8.30;78.10;;;;;;5048857;28;20504;-76
2022/03/05 09:07:49;;;;;;;36.80;26.47;;;8.30;79.40;;;;;;5049033;28;20450;-71
2022/03/05 09:10:16;;;;;;;37.23;27.03;;;8.30;80.70;;;;;;5050454;28;20461;-72
2022/03/05 09:12:45;;;;;;;40.00;27.20;;;8.30;82.10;;;;;;5053092;28;20461;-69
2022/03/05 09:15:12;;;;;;;37.73;26.33;;;8.40;82.40;;;;;;5052707;28;20454;-71
2022/03/05 09:17:40;;;;;;;34.43;27.17;;;8.50;83.10;;;;;;5053014;28;20466;-70
2022/03/05 09:20:09;;;;;;;31.40;24.20;;;8.40;84.20;;;;;;5052801;28;21022;-71
2022/03/05 09:22:36;;;;;;;29.87;22.60;;;8.50;85.20;;;;;;5052890;28;20485;-73
2022/03/05 09:25:03;;;;;;;30.40;21.50;;;8.50;87.20;;;;;;5053187;28;20480;-70
2022/03/05 09:27:30;;;;;;;28.27;21.27;;;8.70;87.80;;;;;;5053122;28;20470;-71
2022/03/05 09:29:59;;;;;;;28.67;19.87;;;9.00;88.00;;;;;;5053115;28;20993;-71
2022/03/05 09:32:26;;;;;;;26.47;19.50;;;9.20;87.30;;;;;;5052404;28;20543;-79
2022/03/05 09:34:54;;;;;;;29.60;20.10;;;9.10;86.90;;;;;;5052817;28;20453;-75
2022/03/05 09:37:21;;;;;;;25.40;18.47;;;9.20;87.50;;;;;;5052766;28;20473;-79
2022/03/05 09:39:48;;;;;;;26.30;19.50;;;9.30;85.60;;;;;;5052735;28;20488;-77
2022/03/05 09:42:16;;;;;;;26.47;19.47;;;9.30;84.70;;;;;;5052434;28;20490;-75
2022/03/05 09:44:43;;;;;;;24.60;17.50;;;9.50;84.20;;;;;;5052549;28;20818;-75
2022/03/05 09:47:12;;;;;;;27.70;17.90;;;9.70;83.20;;;;;;5052454;28;20615;-77
2022/03/05 09:49:40;;;;;;;24.40;18.00;;;9.90;82.60;;;;;;5052577;28;20450;-79
2022/03/05 09:52:08;;;;;;;22.23;17.37;;;10.10;80.40;;;;;;5052551;28;20446;-75
2022/03/05 09:54:35;;;;;;;24.40;18.03;;;10.20;78.20;;;;;;5052174;28;20450;-73
2022/03/05 09:57:03;;;;;;;22.60;19.03;;;10.20;78.50;;;;;;5052324;28;20481;-73
2022/03/05 09:59:30;;;;;;;24.67;17.77;;;10.30;79.10;;;;;;5052262;28;20457;-73
2022/03/05 10:01:58;;;;;;;24.93;18.07;;;10.40;79.00;;;;;;5051960;28;21005;-73
2022/03/05 10:04:26;;;;;;;26.03;17.97;;;10.40;77.60;;;;;;5052245;28;20457;-69
2022/03/05 10:07:11;;;;;;;23.97;17.53;;;10.30;77.70;;;;;;5051855;28;20481;-72
2022/03/05 10:09:39;;;;;;;23.57;17.33;;;10.20;78.70;;;;;;5052288;28;20823;-77
2022/03/05 10:12:28;;;;;;;29.27;19.23;;;10.10;78.80;;;;;;5052157;28;20453;-77
2022/03/05 10:15:10;;;;;;;26.10;18.83;;;10.00;79.60;;;;;;5052103;28;20445;-77
2022/03/05 10:17:55;;;;;;;34.50;17.53;;;9.90;81.00;;;;;;5051915;28;20818;-76
2022/03/05 10:20:25;;;;;;;23.30;18.07;;;9.80;82.30;;;;;;5052010;28;20801;-75
2022/03/05 10:22:57;;;;;;;23.70;18.43;;;9.70;82.90;;;;;;5051154;28;20497;-65
2022/03/05 10:25:36;;;;;;;25.10;18.97;;;9.70;83.70;;;;;;5051730;28;20465;-65
2022/03/05 10:28:06;;;;;;;23.07;16.57;;;9.50;84.10;;;;;;5051941;28;20472;-67
2022/03/05 10:30:35;;;;;;;26.30;16.90;;;9.60;85.30;;;;;;5051677;28;20461;-66
2022/03/05 10:33:03;;;;;;;22.43;17.63;;;9.50;85.30;;;;;;5051340;28;20486;-66
2022/03/05 10:35:31;;;;;;;22.93;18.07;;;9.50;85.50;;;;;;5051622;28;20548;-66
2022/03/05 10:37:58;;;;;;;23.67;18.97;;;9.60;85.60;;;;;;5051695;28;20454;-66
2022/03/05 10:40:27;;;;;;;23.63;17.30;;;9.50;86.10;;;;;;5051767;28;20457;-71
2022/03/05 10:42:56;;;;;;;24.20;18.87;;;9.40;88.00;;;;;;5051667;28;20486;-67
2022/03/05 10:45:23;;;;;;;30.83;19.13;;;9.30;87.80;;;;;;5051519;28;20826;-66
2022/03/05 10:47:51;;;;;;;25.57;20.10;;;9.30;88.50;;;;;;5051370;28;20454;-66
2022/03/05 10:50:23;;;;;;;27.30;19.80;;;9.40;88.90;;;;;;5051601;28;20462;-65
2022/03/05 10:52:53;;;;;;;27.80;21.10;;;9.40;88.50;;;;;;5051547;28;20446;-68
2022/03/05 10:55:22;;;;;;;23.60;20.23;;;9.40;89.10;;;;;;5051041;28;21061;-68
2022/03/05 10:58:00;;;;;;;27.30;19.80;;;9.30;90.00;;;;;;5051065;28;20903;-66
2022/03/05 11:00:28;;;;;;;25.47;19.10;;;9.30;89.80;;;;;;5050910;28;20461;-67
2022/03/05 11:02:57;;;;;;;25.93;19.77;;;9.30;90.00;;;;;;5050839;28;20836;-68
2022/03/05 11:05:25;;;;;;;24.40;18.60;;;9.30;90.20;;;;;;5051110;28;20453;-68
2022/03/05 11:07:55;;;;;;;22.90;17.70;;;9.30;90.40;;;;;;5051346;28;20450;-76
2022/03/05 11:10:26;;;;;;;23.77;17.93;;;9.20;90.80;;;;;;5051088;28;20446;-73
2022/03/05 11:12:56;;;;;;;26.30;20.93;;;9.00;91.40;;;;;;5051036;28;20450;-77
2022/03/05 11:15:25;;;;;;;19.77;17.10;;;8.90;92.00;;;;;;5050985;28;20454;-78
2022/03/05 11:17:52;;;;;;;22.40;17.33;;;8.60;92.60;;;;;;5050787;28;20796;-71
2022/03/05 11:20:19;;;;;;;20.07;15.83;;;8.20;94.10;;;;;;5050825;28;20445;-72
2022/03/05 11:22:49;;;;;;;21.80;18.20;;;8.10;94.80;;;;;;5050571;28;20498;-72
2022/03/05 11:25:20;;;;;;;26.27;18.03;;;7.80;96.00;;;;;;5050860;28;20469;-76
2022/03/05 11:27:57;;;;;;;22.90;17.10;;;7.70;97.90;;;;;;5050777;28;20539;-78
2022/03/05 11:30:24;;;;;;;21.80;19.00;;;7.80;98.80;;;;;;5050781;28;20476;-75
2022/03/05 11:32:52;;;;;;;25.07;19.33;;;7.90;99.40;;;;;;5049932;28;20485;-80
2022/03/05 11:35:21;;;;;;;26.30;19.73;;;8.10;99.40;;;;;;5050122;28;20457;-79
2022/03/05 11:37:50;;;;;;;31.83;21.67;;;8.10;99.40;;;;;;5049097;28;20465;-79
2022/03/05 11:40:40;;;;;;;28.17;21.20;;;8.00;99.90;;;;;;5050557;28;20454;-80
2022/03/05 11:43:18;;;;;;;27.20;18.73;;;8.00;99.90;;;;;;5050536;28;20493;-82
2022/03/05 11:45:50;;;;;;;29.70;19.77;;;8.10;99.90;;;;;;5050208;28;20473;-80
2022/03/05 11:48:32;;;;;;;28.43;20.80;;;8.10;99.90;;;;;;5050518;28;20450;-80
2022/03/05 11:51:01;;;;;;;29.37;20.33;;;8.20;99.90;;;;;;5050512;28;20450;-79
2022/03/05 11:53:29;;;;;;;26.70;20.53;;;8.10;99.90;;;;;;5050557;28;20446;-83
2022/03/05 11:56:18;;;;;;;21.77;19.23;;;8.10;99.90;;;;;;5050341;28;20965;-80
2022/03/05 11:58:45;;;;;;;27.97;19.37;;;8.10;99.90;;;;;;5050130;28;20454;-81
2022/03/05 12:01:39;;;;;;;25.13;18.90;;;8.30;99.90;;;;;;5050752;28;20462;-83
2022/03/05 12:04:23;;;;;;;26.47;18.93;;;8.40;99.90;;;;;;5051706;28;20461;-83
2022/03/05 12:06:54;;;;;;;23.10;16.67;;;8.50;99.90;;;;;;5059925;28;20478;-76
2022/03/05 12:09:41;;;;;;;22.47;16.80;;;8.50;99.90;;;;;;5059500;28;20480;-82
2022/03/05 12:12:12;;;;;;;23.30;16.53;;;8.50;99.90;;;;;;5055926;28;20454;-83
2022/03/05 12:15:22;;;;;;;21.63;17.53;;;8.30;99.90;;;;;;5051979;28;20454;-83
2022/03/05 12:17:51;;;;;;;24.00;17.70;;;8.20;99.90;;;;;;5045116;28;20458;-82
2022/03/05 12:20:26;;;;;;;23.40;17.10;;;8.10;99.90;;;;;;5030586;28;20454;-85
2022/03/05 12:23:00;;;;;;;24.77;18.23;;;8.20;99.90;;;;;;5030334;28;20490;-82
2022/03/05 12:25:30;;;;;;;24.10;18.17;;;8.40;99.90;;;;;;5030139;28;20529;-81
2022/03/05 12:27:59;;;;;;;26.17;18.30;;;8.40;99.90;;;;;;5029881;28;20945;-79
2022/03/05 12:30:29;;;;;;;24.33;18.27;;;8.30;99.90;;;;;;5029903;28;20819;-81
2022/03/05 12:33:01;;;;;;;25.47;20.10;;;7.90;99.90;;;;;;5029432;28;20859;-84
2022/03/05 12:35:29;;;;;;;28.37;22.80;;;7.60;99.90;;;;;;5029986;28;20806;-79
2022/03/05 12:37:56;;;;;;;26.50;21.17;;;7.60;99.90;;;;;;5029462;28;20465;-80
2022/03/05 12:40:25;;;;;;;27.73;20.90;;;7.20;99.90;;;;;;5029859;28;20462;-83
2022/03/05 12:42:54;;;;;;;27.67;21.73;;;7.20;99.90;;;;;;5030003;28;20514;-85
2022/03/05 12:45:25;;;;;;;32.47;23.33;;;6.90;99.90;;;;;;5029448;28;20982;-80
2022/03/05 12:47:54;;;;;;;29.63;22.40;;;6.70;99.90;;;;;;5029355;28;20454;-80